createdAt,value
2019-05-17T00:00:07.271Z,98363.23
2019-05-17T00:10:08.334Z,98347.98
2019-05-17T00:20:10.187Z,98335.27
2019-05-17T00:30:11.446Z,98320.88
2019-05-17T00:40:23.509Z,98311.99
2019-05-17T01:12:00.084Z,98295.20
2019-05-17T01:22:39.152Z,98281.42
2019-05-17T01:33:16.934Z,98273.25
2019-05-17T01:43:16.635Z,98261.63
2019-05-17T01:53:19.735Z,98255.87
2019-05-17T02:03:21.057Z,98245.95
2019-05-17T02:13:23.214Z,98247.17
2019-05-17T02:23:24.037Z,98239.20
2019-05-17T02:43:45.713Z,98220.97
2019-05-17T02:53:47.827Z,98211.02
2019-05-17T03:03:52.639Z,98202.37
2019-05-17T03:13:52.646Z,98200.77
2019-05-17T03:23:54.202Z,98200.95
2019-05-17T03:33:56.394Z,98194.01
2019-05-17T03:43:57.661Z,98194.72
2019-05-17T03:54:02.329Z,98185.17
2019-05-17T04:04:03.308Z,98186.49
2019-05-17T04:14:04.343Z,98175.17
2019-05-17T04:24:05.349Z,98172.48
2019-05-17T04:34:06.120Z,98174.20
2019-05-17T04:44:07.086Z,98172.89
2019-05-17T04:54:08.110Z,98171.98
2019-05-17T05:04:09.154Z,98169.27
2019-05-17T05:14:12.573Z,98175.14
2019-05-17T05:24:12.936Z,98174.55
2019-05-17T05:34:13.716Z,98173.80
2019-05-17T05:44:14.363Z,98172.92
2019-05-17T05:54:15.382Z,98178.20
2019-05-17T06:04:16.135Z,98184.11
2019-05-17T06:14:17.240Z,98184.95
2019-05-17T06:24:18.091Z,98179.72
2019-05-17T06:34:18.734Z,98169.35
2019-05-17T06:44:21.592Z,98169.03
2019-05-17T06:54:22.548Z,98173.19
2019-05-17T07:04:23.373Z,98172.61
2019-05-17T07:14:40.505Z,98177.09
2019-05-17T07:35:21.521Z,98177.30
2019-05-17T07:45:34.271Z,98168.95
2019-05-17T08:06:31.341Z,98157.13
2019-05-17T08:16:40.169Z,98144.82
2019-05-17T08:26:41.475Z,98146.06
2019-05-17T08:37:04.741Z,98140.63
2019-05-17T08:47:07.570Z,98138.72
2019-05-17T09:07:52.280Z,98116.30
2019-05-17T09:17:53.213Z,98109.39
2019-05-17T09:27:54.307Z,98103.45
2019-05-17T09:37:55.068Z,98093.16
2019-05-17T09:47:57.370Z,98098.78
2019-05-17T10:50:11.817Z,98069.69
2019-05-17T11:00:25.319Z,98071.02
2019-05-17T11:10:32.421Z,98071.95
2019-05-17T11:30:50.345Z,98051.30
2019-05-17T11:40:57.934Z,98044.23
2019-05-17T12:01:24.308Z,98036.53
2019-05-17T12:21:59.996Z,98022.04
2019-05-17T12:32:05.063Z,98018.55
2019-05-17T12:42:12.090Z,98020.72
2019-05-17T12:52:13.169Z,98015.85
2019-05-17T13:02:14.052Z,98003.67
2019-05-17T13:12:17.859Z,98006.81
2019-05-17T13:22:20.625Z,98008.09
2019-05-17T14:03:56.730Z,97974.09
2019-05-17T14:25:53.379Z,97978.77
2019-05-17T14:34:23.280Z,97971.65
2019-05-17T14:55:11.468Z,97957.38
2019-05-17T15:25:54.515Z,97946.68
2019-05-17T15:35:55.475Z,97934.92
2019-05-17T15:45:56.313Z,97932.94
2019-05-17T15:55:57.039Z,97923.91
2019-05-17T16:05:57.810Z,97917.05
2019-05-17T16:15:58.516Z,97914.13
2019-05-17T16:25:59.436Z,97900.97
2019-05-17T16:36:00.152Z,97909.30
2019-05-17T16:46:00.846Z,97911.99
2019-05-17T16:56:01.796Z,97896.86
2019-05-17T17:06:02.723Z,97892.09
2019-05-17T17:16:03.738Z,97893.40
2019-05-17T17:26:04.652Z,97888.97
2019-05-17T17:36:05.392Z,97895.90
2019-05-17T17:46:06.709Z,97888.66
2019-05-17T17:56:07.447Z,97883.84
2019-05-17T18:06:08.483Z,97885.66
2019-05-17T18:16:09.448Z,97893.30
2019-05-17T18:26:10.373Z,97889.29
2019-05-17T18:36:11.200Z,97892.27
2019-05-17T18:46:12.229Z,97902.86
2019-05-17T18:56:13.238Z,97895.83
2019-05-17T19:06:14.210Z,97906.94
2019-05-17T19:16:14.978Z,97908.31
2019-05-17T19:26:15.718Z,97917.78
2019-05-17T19:36:16.750Z,97926.45
2019-05-17T19:46:17.570Z,97933.17
2019-05-17T19:56:18.254Z,97926.30
2019-05-17T20:06:23.466Z,97936.53
2019-05-17T20:16:24.294Z,97937.53
2019-05-17T20:26:25.120Z,97934.73
2019-05-17T20:36:28.754Z,97943.16
2019-05-17T20:46:30.679Z,97927.14
2019-05-17T20:56:33.293Z,97919.24
2019-05-17T21:06:34.170Z,97920.39
2019-05-17T21:16:34.956Z,97909.84
2019-05-17T21:26:35.902Z,97916.44
2019-05-17T21:36:36.690Z,97920.84
2019-05-17T21:46:37.656Z,97922.51
2019-05-17T21:56:38.421Z,97930.23
2019-05-17T22:06:39.233Z,97919.81
2019-05-17T22:16:40.286Z,97925.75
2019-05-17T22:26:40.970Z,97932.53
2019-05-17T22:36:42.131Z,97934.86
2019-05-17T22:46:44.847Z,97959.31
2019-05-17T22:56:45.944Z,97951.27
2019-05-17T23:06:47.099Z,97931.98
2019-05-17T23:16:51.520Z,97943.59
2019-05-17T23:26:50.523Z,97906.75
2019-05-17T23:36:51.507Z,97929.97
2019-05-17T23:47:06.258Z,97926.89
2019-05-17T23:56:55.269Z,97914.04
